sensor_id;sensor_type;location;lat;lon;timestamp;P1;durP1;ratioP1;P2;durP2;ratioP2
28086;SDS011;15392;48.912;8.380;2022-10-12T00:01:23;1.77;;;1.73;;
28086;SDS011;15392;48.912;8.380;2022-10-12T00:03:49;2.45;;;2.10;;
28086;SDS011;15392;48.912;8.380;2022-10-12T00:06:16;2.40;;;2.22;;
28086;SDS011;15392;48.912;8.380;2022-10-12T00:08:48;2.30;;;2.10;;
28086;SDS011;15392;48.912;8.380;2022-10-12T00:11:18;1.90;;;1.73;;
28086;SDS011;15392;48.912;8.380;2022-10-12T00:13:47;2.60;;;1.88;;
28086;SDS011;15392;48.912;8.380;2022-10-12T00:16:14;3.42;;;2.42;;
28086;SDS011;15392;48.912;8.380;2022-10-12T00:18:43;2.08;;;1.98;;
28086;SDS011;15392;48.912;8.380;2022-10-12T00:21:09;1.92;;;1.83;;
28086;SDS011;15392;48.912;8.380;2022-10-12T00:23:38;2.40;;;2.20;;
28086;SDS011;15392;48.912;8.380;2022-10-12T00:26:07;2.00;;;1.90;;
28086;SDS011;15392;48.912;8.380;2022-10-12T00:28:39;2.13;;;2.03;;
28086;SDS011;15392;48.912;8.380;2022-10-12T00:31:12;1.92;;;1.70;;
28086;SDS011;15392;48.912;8.380;2022-10-12T00:33:43;2.17;;;1.95;;
28086;SDS011;15392;48.912;8.380;2022-10-12T00:36:11;2.50;;;2.03;;
28086;SDS011;15392;48.912;8.380;2022-10-12T00:38:46;1.98;;;1.88;;
28086;SDS011;15392;48.912;8.380;2022-10-12T00:41:15;2.13;;;2.03;;
28086;SDS011;15392;48.912;8.380;2022-10-12T00:43:44;2.00;;;1.90;;
28086;SDS011;15392;48.912;8.380;2022-10-12T00:46:13;2.13;;;1.73;;
28086;SDS011;15392;48.912;8.380;2022-10-12T00:48:53;2.40;;;2.20;;
28086;SDS011;15392;48.912;8.380;2022-10-12T00:51:23;2.42;;;2.33;;
28086;SDS011;15392;48.912;8.380;2022-10-12T00:53:51;2.25;;;2.08;;
28086;SDS011;15392;48.912;8.380;2022-10-12T00:56:26;2.08;;;1.92;;
28086;SDS011;15392;48.912;8.380;2022-10-12T00:58:55;1.93;;;1.77;;
28086;SDS011;15392;48.912;8.380;2022-10-12T01:01:27;2.20;;;2.10;;
28086;SDS011;15392;48.912;8.380;2022-10-12T01:03:57;2.20;;;2.00;;
28086;SDS011;15392;48.912;8.380;2022-10-12T01:06:24;2.83;;;1.90;;
28086;SDS011;15392;48.912;8.380;2022-10-12T01:08:49;2.03;;;1.90;;
28086;SDS011;15392;48.912;8.380;2022-10-12T01:11:18;2.20;;;1.85;;
28086;SDS011;15392;48.912;8.380;2022-10-12T01:13:44;2.20;;;2.10;;
28086;SDS011;15392;48.912;8.380;2022-10-12T01:16:12;2.22;;;1.92;;
28086;SDS011;15392;48.912;8.380;2022-10-12T01:18:58;1.80;;;1.73;;
28086;SDS011;15392;48.912;8.380;2022-10-12T01:21:56;1.90;;;1.80;;
28086;SDS011;15392;48.912;8.380;2022-10-12T01:27:00;2.15;;;2.05;;
28086;SDS011;15392;48.912;8.380;2022-10-12T01:30:00;2.70;;;2.10;;
28086;SDS011;15392;48.912;8.380;2022-10-12T01:41:23;2.20;;;2.00;;
28086;SDS011;15392;48.912;8.380;2022-10-12T01:43:56;1.92;;;1.83;;
28086;SDS011;15392;48.912;8.380;2022-10-12T01:48:48;2.55;;;2.00;;
28086;SDS011;15392;48.912;8.380;2022-10-12T01:57:03;2.40;;;1.80;;
28086;SDS011;15392;48.912;8.380;2022-10-12T02:02:29;2.38;;;2.08;;
28086;SDS011;15392;48.912;8.380;2022-10-12T02:05:04;1.77;;;1.70;;
28086;SDS011;15392;48.912;8.380;2022-10-12T02:08:00;1.83;;;1.73;;
28086;SDS011;15392;48.912;8.380;2022-10-12T02:10:39;1.83;;;1.33;;
28086;SDS011;15392;48.912;8.380;2022-10-12T02:14:26;1.63;;;1.52;;
28086;SDS011;15392;48.912;8.380;2022-10-12T02:16:28;1.55;;;1.55;;
28086;SDS011;15392;48.912;8.380;2022-10-12T02:19:00;2.08;;;1.48;;
28086;SDS011;15392;48.912;8.380;2022-10-12T02:21:30;1.80;;;1.70;;
28086;SDS011;15392;48.912;8.380;2022-10-12T02:23:59;1.85;;;1.75;;
28086;SDS011;15392;48.912;8.380;2022-10-12T02:26:33;1.63;;;1.52;;
28086;SDS011;15392;48.912;8.380;2022-10-12T02:29:02;1.85;;;1.80;;
28086;SDS011;15392;48.912;8.380;2022-10-12T02:31:53;1.83;;;1.73;;
28086;SDS011;15392;48.912;8.380;2022-10-12T02:34:27;1.80;;;1.70;;
28086;SDS011;15392;48.912;8.380;2022-10-12T02:37:43;2.03;;;1.92;;
28086;SDS011;15392;48.912;8.380;2022-10-12T02:40:16;1.70;;;1.60;;
28086;SDS011;15392;48.912;8.380;2022-10-12T02:42:59;2.45;;;1.50;;
28086;SDS011;15392;48.912;8.380;2022-10-12T02:45:32;1.55;;;1.45;;
28086;SDS011;15392;48.912;8.380;2022-10-12T02:47:59;1.70;;;1.60;;
28086;SDS011;15392;48.912;8.380;2022-10-12T02:50:25;1.50;;;1.48;;
28086;SDS011;15392;48.912;8.380;2022-10-12T02:52:52;1.65;;;1.60;;
28086;SDS011;15392;48.912;8.380;2022-10-12T02:55:18;1.90;;;1.80;;
28086;SDS011;15392;48.912;8.380;2022-10-12T02:57:44;2.20;;;2.03;;
28086;SDS011;15392;48.912;8.380;2022-10-12T03:00:10;2.03;;;1.90;;
28086;SDS011;15392;48.912;8.380;2022-10-12T03:02:36;2.10;;;2.00;;
28086;SDS011;15392;48.912;8.380;2022-10-12T03:05:03;2.00;;;1.90;;
28086;SDS011;15392;48.912;8.380;2022-10-12T03:07:29;3.25;;;1.67;;
28086;SDS011;15392;48.912;8.380;2022-10-12T03:09:54;1.70;;;1.60;;
28086;SDS011;15392;48.912;8.380;2022-10-12T03:12:20;1.88;;;1.77;;
28086;SDS011;15392;48.912;8.380;2022-10-12T03:14:46;1.95;;;1.85;;
28086;SDS011;15392;48.912;8.380;2022-10-12T03:17:12;2.00;;;1.90;;
28086;SDS011;15392;48.912;8.380;2022-10-12T03:19:37;2.13;;;2.03;;
28086;SDS011;15392;48.912;8.380;2022-10-12T03:22:04;2.58;;;1.65;;
28086;SDS011;15392;48.912;8.380;2022-10-12T03:24:30;1.70;;;1.60;;
28086;SDS011;15392;48.912;8.380;2022-10-12T03:26:55;1.58;;;1.48;;
28086;SDS011;15392;48.912;8.380;2022-10-12T03:29:21;1.65;;;1.60;;
28086;SDS011;15392;48.912;8.380;2022-10-12T03:31:47;1.65;;;1.55;;
28086;SDS011;15392;48.912;8.380;2022-10-12T03:34:13;1.77;;;1.67;;
28086;SDS011;15392;48.912;8.380;2022-10-12T03:36:39;1.70;;;1.60;;
28086;SDS011;15392;48.912;8.380;2022-10-12T03:39:04;1.60;;;1.50;;
28086;SDS011;15392;48.912;8.380;2022-10-12T03:41:30;1.83;;;1.70;;
28086;SDS011;15392;48.912;8.380;2022-10-12T03:43:56;1.65;;;1.55;;
28086;SDS011;15392;48.912;8.380;2022-10-12T03:46:22;2.33;;;1.60;;
28086;SDS011;15392;48.912;8.380;2022-10-12T03:48:48;1.60;;;1.52;;
28086;SDS011;15392;48.912;8.380;2022-10-12T03:51:14;1.63;;;1.52;;
28086;SDS011;15392;48.912;8.380;2022-10-12T03:53:40;1.58;;;1.48;;
28086;SDS011;15392;48.912;8.380;2022-10-12T03:56:05;1.45;;;1.35;;
28086;SDS011;15392;48.912;8.380;2022-10-12T03:58:31;2.30;;;1.38;;
28086;SDS011;15392;48.912;8.380;2022-10-12T04:00:57;1.48;;;1.33;;
28086;SDS011;15392;48.912;8.380;2022-10-12T04:03:23;1.30;;;1.30;;
28086;SDS011;15392;48.912;8.380;2022-10-12T04:05:52;2.05;;;1.45;;
28086;SDS011;15392;48.912;8.380;2022-10-12T04:08:20;1.10;;;1.10;;
28086;SDS011;15392;48.912;8.380;2022-10-12T04:10:47;1.17;;;1.13;;
28086;SDS011;15392;48.912;8.380;2022-10-12T04:13:14;1.58;;;1.10;;
28086;SDS011;15392;48.912;8.380;2022-10-12T04:15:41;1.33;;;0.90;;
28086;SDS011;15392;48.912;8.380;2022-10-12T04:18:07;1.20;;;1.10;;
28086;SDS011;15392;48.912;8.380;2022-10-12T04:20:33;1.20;;;1.10;;
28086;SDS011;15392;48.912;8.380;2022-10-12T04:22:58;1.45;;;1.30;;
28086;SDS011;15392;48.912;8.380;2022-10-12T04:25:24;1.70;;;1.27;;
28086;SDS011;15392;48.912;8.380;2022-10-12T04:27:50;1.40;;;1.30;;
28086;SDS011;15392;48.912;8.380;2022-10-12T04:30:16;1.20;;;1.15;;
28086;SDS011;15392;48.912;8.380;2022-10-12T04:32:42;0.95;;;0.95;;
28086;SDS011;15392;48.912;8.380;2022-10-12T04:35:08;0.90;;;0.90;;
28086;SDS011;15392;48.912;8.380;2022-10-12T04:37:34;1.08;;;1.00;;
28086;SDS011;15392;48.912;8.380;2022-10-12T04:39:59;1.20;;;1.20;;
28086;SDS011;15392;48.912;8.380;2022-10-12T04:42:25;1.35;;;0.90;;
28086;SDS011;15392;48.912;8.380;2022-10-12T04:44:51;1.00;;;1.00;;
28086;SDS011;15392;48.912;8.380;2022-10-12T04:47:17;1.00;;;1.00;;
28086;SDS011;15392;48.912;8.380;2022-10-12T04:49:42;1.88;;;1.15;;
28086;SDS011;15392;48.912;8.380;2022-10-12T04:52:08;1.02;;;0.93;;
28086;SDS011;15392;48.912;8.380;2022-10-12T04:54:34;1.27;;;1.17;;
28086;SDS011;15392;48.912;8.380;2022-10-12T04:57:00;1.33;;;1.23;;
28086;SDS011;15392;48.912;8.380;2022-10-12T04:59:25;1.48;;;1.10;;
28086;SDS011;15392;48.912;8.380;2022-10-12T05:01:51;1.48;;;1.25;;
28086;SDS011;15392;48.912;8.380;2022-10-12T05:04:18;2.33;;;1.35;;
28086;SDS011;15392;48.912;8.380;2022-10-12T05:06:44;1.00;;;1.00;;
28086;SDS011;15392;48.912;8.380;2022-10-12T05:09:10;1.38;;;1.23;;
28086;SDS011;15392;48.912;8.380;2022-10-12T05:11:36;3.03;;;1.27;;
28086;SDS011;15392;48.912;8.380;2022-10-12T05:14:02;1.33;;;1.23;;
28086;SDS011;15392;48.912;8.380;2022-10-12T05:16:28;1.67;;;1.23;;
28086;SDS011;15392;48.912;8.380;2022-10-12T05:18:53;2.08;;;1.20;;
28086;SDS011;15392;48.912;8.380;2022-10-12T05:21:19;1.50;;;1.40;;
28086;SDS011;15392;48.912;8.380;2022-10-12T05:23:48;1.77;;;1.20;;
28086;SDS011;15392;48.912;8.380;2022-10-12T05:26:15;1.42;;;1.33;;
28086;SDS011;15392;48.912;8.380;2022-10-12T05:28:41;1.83;;;1.25;;
28086;SDS011;15392;48.912;8.380;2022-10-12T05:31:07;1.45;;;1.35;;
28086;SDS011;15392;48.912;8.380;2022-10-12T05:33:33;1.15;;;1.15;;
28086;SDS011;15392;48.912;8.380;2022-10-12T05:35:59;1.38;;;1.25;;
28086;SDS011;15392;48.912;8.380;2022-10-12T05:38:25;1.42;;;1.33;;
28086;SDS011;15392;48.912;8.380;2022-10-12T05:40:50;2.40;;;1.20;;
28086;SDS011;15392;48.912;8.380;2022-10-12T05:43:17;1.92;;;1.13;;
28086;SDS011;15392;48.912;8.380;2022-10-12T05:45:43;1.70;;;1.60;;
28086;SDS011;15392;48.912;8.380;2022-10-12T05:48:08;1.30;;;1.20;;
28086;SDS011;15392;48.912;8.380;2022-10-12T05:50:34;1.30;;;1.20;;
28086;SDS011;15392;48.912;8.380;2022-10-12T05:53:00;1.35;;;1.25;;
28086;SDS011;15392;48.912;8.380;2022-10-12T05:55:25;2.13;;;1.40;;
28086;SDS011;15392;48.912;8.380;2022-10-12T05:57:51;3.63;;;1.75;;
28086;SDS011;15392;48.912;8.380;2022-10-12T06:00:17;2.30;;;1.70;;
28086;SDS011;15392;48.912;8.380;2022-10-12T06:02:43;2.65;;;2.10;;
28086;SDS011;15392;48.912;8.380;2022-10-12T06:05:09;1.73;;;1.63;;
28086;SDS011;15392;48.912;8.380;2022-10-12T06:07:35;2.67;;;1.70;;
28086;SDS011;15392;48.912;8.380;2022-10-12T06:10:00;3.72;;;2.03;;
28086;SDS011;15392;48.912;8.380;2022-10-12T06:12:26;2.53;;;2.00;;
28086;SDS011;15392;48.912;8.380;2022-10-12T06:14:52;2.92;;;2.10;;
28086;SDS011;15392;48.912;8.380;2022-10-12T06:17:18;2.40;;;1.98;;
28086;SDS011;15392;48.912;8.380;2022-10-12T06:19:44;2.17;;;2.00;;
28086;SDS011;15392;48.912;8.380;2022-10-12T06:22:09;2.10;;;2.00;;
28086;SDS011;15392;48.912;8.380;2022-10-12T06:24:35;2.47;;;1.92;;
28086;SDS011;15392;48.912;8.380;2022-10-12T06:27:02;1.92;;;1.83;;
28086;SDS011;15392;48.912;8.380;2022-10-12T06:29:29;1.85;;;1.75;;
28086;SDS011;15392;48.912;8.380;2022-10-12T06:31:55;2.00;;;1.90;;
28086;SDS011;15392;48.912;8.380;2022-10-12T06:34:21;1.50;;;1.50;;
28086;SDS011;15392;48.912;8.380;2022-10-12T06:36:47;2.00;;;1.77;;
28086;SDS011;15392;48.912;8.380;2022-10-12T06:39:13;1.90;;;1.80;;
28086;SDS011;15392;48.912;8.380;2022-10-12T06:41:39;2.33;;;1.73;;
28086;SDS011;15392;48.912;8.380;2022-10-12T06:44:05;2.85;;;1.80;;
28086;SDS011;15392;48.912;8.380;2022-10-12T06:46:32;2.40;;;2.20;;
28086;SDS011;15392;48.912;8.380;2022-10-12T06:48:58;2.63;;;2.30;;
28086;SDS011;15392;48.912;8.380;2022-10-12T06:51:23;2.03;;;1.75;;
28086;SDS011;15392;48.912;8.380;2022-10-12T06:53:49;2.05;;;1.95;;
28086;SDS011;15392;48.912;8.380;2022-10-12T06:56:18;3.40;;;1.77;;
28086;SDS011;15392;48.912;8.380;2022-10-12T06:58:44;2.20;;;2.00;;
28086;SDS011;15392;48.912;8.380;2022-10-12T07:01:10;1.98;;;1.88;;
28086;SDS011;15392;48.912;8.380;2022-10-12T07:03:36;1.90;;;1.75;;
28086;SDS011;15392;48.912;8.380;2022-10-12T07:06:09;2.83;;;1.80;;
28086;SDS011;15392;48.912;8.380;2022-10-12T07:08:37;1.98;;;1.60;;
28086;SDS011;15392;48.912;8.380;2022-10-12T07:11:06;1.77;;;1.75;;
28086;SDS011;15392;48.912;8.380;2022-10-12T07:13:35;2.20;;;2.10;;
28086;SDS011;15392;48.912;8.380;2022-10-12T07:16:01;2.47;;;2.28;;
28086;SDS011;15392;48.912;8.380;2022-10-12T07:18:27;2.20;;;2.10;;
28086;SDS011;15392;48.912;8.380;2022-10-12T07:20:55;2.15;;;2.05;;
28086;SDS011;15392;48.912;8.380;2022-10-12T07:23:23;2.83;;;2.33;;
28086;SDS011;15392;48.912;8.380;2022-10-12T07:25:51;2.70;;;2.50;;
28086;SDS011;15392;48.912;8.380;2022-10-12T07:28:17;2.53;;;2.33;;
28086;SDS011;15392;48.912;8.380;2022-10-12T07:30:44;2.85;;;2.75;;
28086;SDS011;15392;48.912;8.380;2022-10-12T07:33:11;2.55;;;2.45;;
28086;SDS011;15392;48.912;8.380;2022-10-12T07:35:37;2.95;;;2.80;;
28086;SDS011;15392;48.912;8.380;2022-10-12T07:38:03;2.55;;;2.45;;
28086;SDS011;15392;48.912;8.380;2022-10-12T07:40:29;2.70;;;2.60;;
28086;SDS011;15392;48.912;8.380;2022-10-12T07:42:56;3.30;;;2.90;;
28086;SDS011;15392;48.912;8.380;2022-10-12T07:45:23;2.78;;;2.67;;
28086;SDS011;15392;48.912;8.380;2022-10-12T07:47:49;2.95;;;2.75;;
28086;SDS011;15392;48.912;8.380;2022-10-12T07:50:15;3.65;;;3.10;;
28086;SDS011;15392;48.912;8.380;2022-10-12T07:52:41;2.72;;;2.63;;
28086;SDS011;15392;48.912;8.380;2022-10-12T07:55:06;2.83;;;2.72;;
28086;SDS011;15392;48.912;8.380;2022-10-12T07:57:33;3.40;;;3.10;;
28086;SDS011;15392;48.912;8.380;2022-10-12T07:59:58;2.97;;;2.88;;
28086;SDS011;15392;48.912;8.380;2022-10-12T08:02:24;3.20;;;3.00;;
28086;SDS011;15392;48.912;8.380;2022-10-12T08:04:50;3.17;;;2.97;;
28086;SDS011;15392;48.912;8.380;2022-10-12T08:07:16;2.85;;;2.75;;
28086;SDS011;15392;48.912;8.380;2022-10-12T08:09:42;3.30;;;3.10;;
28086;SDS011;15392;48.912;8.380;2022-10-12T08:12:08;3.00;;;2.75;;
28086;SDS011;15392;48.912;8.380;2022-10-12T08:14:35;2.92;;;2.72;;
28086;SDS011;15392;48.912;8.380;2022-10-12T08:17:01;3.17;;;2.72;;
28086;SDS011;15392;48.912;8.380;2022-10-12T08:19:27;2.90;;;2.70;;
28086;SDS011;15392;48.912;8.380;2022-10-12T08:21:52;2.60;;;2.50;;
28086;SDS011;15392;48.912;8.380;2022-10-12T08:24:18;2.50;;;2.40;;
28086;SDS011;15392;48.912;8.380;2022-10-12T08:26:44;3.30;;;2.90;;
28086;SDS011;15392;48.912;8.380;2022-10-12T08:29:10;3.05;;;2.85;;
28086;SDS011;15392;48.912;8.380;2022-10-12T08:31:35;2.65;;;2.55;;
28086;SDS011;15392;48.912;8.380;2022-10-12T08:34:02;2.90;;;2.70;;
28086;SDS011;15392;48.912;8.380;2022-10-12T08:36:28;2.97;;;2.88;;
28086;SDS011;15392;48.912;8.380;2022-10-12T08:38:54;3.20;;;3.00;;
28086;SDS011;15392;48.912;8.380;2022-10-12T08:47:11;2.80;;;2.60;;
28086;SDS011;15392;48.912;8.380;2022-10-12T08:50:01;2.80;;;2.70;;
28086;SDS011;15392;48.912;8.380;2022-10-12T08:52:29;2.80;;;2.70;;
28086;SDS011;15392;48.912;8.380;2022-10-12T08:55:03;2.72;;;2.63;;
28086;SDS011;15392;48.912;8.380;2022-10-12T08:57:57;2.50;;;2.40;;
28086;SDS011;15392;48.912;8.380;2022-10-12T09:00:23;3.03;;;2.85;;
28086;SDS011;15392;48.912;8.380;2022-10-12T09:06:20;3.22;;;3.03;;
28086;SDS011;15392;48.912;8.380;2022-10-12T09:11:36;3.00;;;2.80;;
28086;SDS011;15392;48.912;8.380;2022-10-12T09:14:11;5.13;;;2.80;;
28086;SDS011;15392;48.912;8.380;2022-10-12T09:16:47;3.03;;;2.83;;
28086;SDS011;15392;48.912;8.380;2022-10-12T09:21:48;3.08;;;2.67;;
28086;SDS011;15392;48.912;8.380;2022-10-12T09:24:18;3.85;;;3.08;;
28086;SDS011;15392;48.912;8.380;2022-10-12T09:26:50;3.00;;;2.90;;
28086;SDS011;15392;48.912;8.380;2022-10-12T09:29:29;2.83;;;2.70;;
28086;SDS011;15392;48.912;8.380;2022-10-12T09:34:42;2.67;;;2.58;;
28086;SDS011;15392;48.912;8.380;2022-10-12T09:37:15;2.60;;;2.50;;
28086;SDS011;15392;48.912;8.380;2022-10-12T09:39:46;2.92;;;2.83;;
28086;SDS011;15392;48.912;8.380;2022-10-12T09:42:12;3.28;;;2.97;;
28086;SDS011;15392;48.912;8.380;2022-10-12T09:44:48;3.22;;;3.05;;
28086;SDS011;15392;48.912;8.380;2022-10-12T09:49:46;3.17;;;2.97;;
28086;SDS011;15392;48.912;8.380;2022-10-12T09:52:14;3.15;;;3.05;;
28086;SDS011;15392;48.912;8.380;2022-10-12T09:54:44;3.08;;;2.90;;
28086;SDS011;15392;48.912;8.380;2022-10-12T09:57:24;3.28;;;3.08;;
28086;SDS011;15392;48.912;8.380;2022-10-12T10:00:05;2.75;;;2.65;;
28086;SDS011;15392;48.912;8.380;2022-10-12T10:02:49;4.53;;;3.17;;
28086;SDS011;15392;48.912;8.380;2022-10-12T10:10:49;3.17;;;2.97;;
28086;SDS011;15392;48.912;8.380;2022-10-12T10:13:17;2.83;;;2.63;;
28086;SDS011;15392;48.912;8.380;2022-10-12T10:15:46;2.65;;;2.47;;
28086;SDS011;15392;48.912;8.380;2022-10-12T10:23:26;2.85;;;2.70;;
28086;SDS011;15392;48.912;8.380;2022-10-12T10:26:17;2.75;;;2.55;;
28086;SDS011;15392;48.912;8.380;2022-10-12T10:28:45;2.70;;;2.60;;
28086;SDS011;15392;48.912;8.380;2022-10-12T10:33:45;2.72;;;2.53;;
28086;SDS011;15392;48.912;8.380;2022-10-12T10:36:51;2.53;;;2.42;;
28086;SDS011;15392;48.912;8.380;2022-10-12T10:42:07;2.35;;;2.25;;
28086;SDS011;15392;48.912;8.380;2022-10-12T10:44:36;2.70;;;2.60;;
28086;SDS011;15392;48.912;8.380;2022-10-12T10:47:09;2.60;;;2.40;;
28086;SDS011;15392;48.912;8.380;2022-10-12T10:49:38;2.30;;;2.20;;
28086;SDS011;15392;48.912;8.380;2022-10-12T10:52:16;2.53;;;2.33;;
28086;SDS011;15392;48.912;8.380;2022-10-12T10:57:34;3.15;;;2.28;;
28086;SDS011;15392;48.912;8.380;2022-10-12T11:00:14;1.90;;;1.85;;
28086;SDS011;15392;48.912;8.380;2022-10-12T11:02:56;2.53;;;2.33;;
28086;SDS011;15392;48.912;8.380;2022-10-12T11:05:27;2.20;;;2.10;;
28086;SDS011;15392;48.912;8.380;2022-10-12T11:08:14;2.15;;;2.05;;
28086;SDS011;15392;48.912;8.380;2022-10-12T11:13:55;2.38;;;1.95;;
28086;SDS011;15392;48.912;8.380;2022-10-12T11:16:56;2.10;;;2.00;;
28086;SDS011;15392;48.912;8.380;2022-10-12T11:19:52;1.70;;;1.63;;
28086;SDS011;15392;48.912;8.380;2022-10-12T11:23:32;1.85;;;1.75;;
28086;SDS011;15392;48.912;8.380;2022-10-12T11:28:27;2.03;;;1.92;;
28086;SDS011;15392;48.912;8.380;2022-10-12T11:30:56;2.10;;;2.00;;
28086;SDS011;15392;48.912;8.380;2022-10-12T11:35:52;2.40;;;2.22;;
28086;SDS011;15392;48.912;8.380;2022-10-12T11:38:27;3.25;;;2.15;;
28086;SDS011;15392;48.912;8.380;2022-10-12T11:44:11;2.33;;;2.22;;
28086;SDS011;15392;48.912;8.380;2022-10-12T11:46:46;2.42;;;2.15;;
28086;SDS011;15392;48.912;8.380;2022-10-12T11:49:27;2.17;;;1.77;;
28086;SDS011;15392;48.912;8.380;2022-10-12T11:52:27;1.60;;;1.60;;
28086;SDS011;15392;48.912;8.380;2022-10-12T11:55:26;2.10;;;2.00;;
28086;SDS011;15392;48.912;8.380;2022-10-12T11:58:31;2.03;;;1.90;;
28086;SDS011;15392;48.912;8.380;2022-10-12T12:06:47;1.88;;;1.77;;
28086;SDS011;15392;48.912;8.380;2022-10-12T12:09:43;2.00;;;1.80;;
28086;SDS011;15392;48.912;8.380;2022-10-12T12:12:25;2.15;;;2.05;;
28086;SDS011;15392;48.912;8.380;2022-10-12T12:25:02;1.92;;;1.83;;
28086;SDS011;15392;48.912;8.380;2022-10-12T12:32:46;2.17;;;2.08;;
28086;SDS011;15392;48.912;8.380;2022-10-12T12:40:36;1.85;;;1.75;;
28086;SDS011;15392;48.912;8.380;2022-10-12T12:45:55;1.98;;;1.88;;
28086;SDS011;15392;48.912;8.380;2022-10-12T12:51:11;1.88;;;1.77;;
28086;SDS011;15392;48.912;8.380;2022-10-12T12:59:15;2.00;;;1.80;;
28086;SDS011;15392;48.912;8.380;2022-10-12T13:02:30;2.10;;;1.90;;
28086;SDS011;15392;48.912;8.380;2022-10-12T13:07:56;1.90;;;1.80;;
28086;SDS011;15392;48.912;8.380;2022-10-12T13:14:38;1.65;;;1.55;;
28086;SDS011;15392;48.912;8.380;2022-10-12T13:17:56;2.80;;;2.53;;
28086;SDS011;15392;48.912;8.380;2022-10-12T13:20:33;2.28;;;2.10;;
28086;SDS011;15392;48.912;8.380;2022-10-12T13:23:13;1.75;;;1.40;;
28086;SDS011;15392;48.912;8.380;2022-10-12T13:25:49;1.60;;;1.50;;
28086;SDS011;15392;48.912;8.380;2022-10-12T13:28:21;1.95;;;1.85;;
28086;SDS011;15392;48.912;8.380;2022-10-12T13:30:54;1.77;;;1.67;;
28086;SDS011;15392;48.912;8.380;2022-10-12T13:33:27;1.58;;;1.48;;
28086;SDS011;15392;48.912;8.380;2022-10-12T13:36:00;1.83;;;1.63;;
28086;SDS011;15392;48.912;8.380;2022-10-12T13:41:20;1.35;;;1.25;;
28086;SDS011;15392;48.912;8.380;2022-10-12T13:43:51;1.83;;;1.73;;
28086;SDS011;15392;48.912;8.380;2022-10-12T13:46:34;1.80;;;1.70;;
28086;SDS011;15392;48.912;8.380;2022-10-12T13:51:59;1.35;;;1.25;;
28086;SDS011;15392;48.912;8.380;2022-10-12T13:54:48;1.60;;;1.50;;
28086;SDS011;15392;48.912;8.380;2022-10-12T14:02:51;1.50;;;1.40;;
28086;SDS011;15392;48.912;8.380;2022-10-12T14:05:28;1.88;;;1.77;;
28086;SDS011;15392;48.912;8.380;2022-10-12T14:07:58;2.00;;;1.80;;
28086;SDS011;15392;48.912;8.380;2022-10-12T14:10:34;1.95;;;1.85;;
28086;SDS011;15392;48.912;8.380;2022-10-12T14:13:02;1.55;;;1.45;;
28086;SDS011;15392;48.912;8.380;2022-10-12T14:15:36;1.77;;;1.67;;
28086;SDS011;15392;48.912;8.380;2022-10-12T14:18:05;1.92;;;1.73;;
28086;SDS011;15392;48.912;8.380;2022-10-12T14:21:10;4.45;;;1.60;;
28086;SDS011;15392;48.912;8.380;2022-10-12T14:23:43;1.85;;;1.75;;
28086;SDS011;15392;48.912;8.380;2022-10-12T14:26:21;2.22;;;1.88;;
28086;SDS011;15392;48.912;8.380;2022-10-12T14:28:53;2.17;;;2.08;;
28086;SDS011;15392;48.912;8.380;2022-10-12T14:37:01;2.22;;;1.77;;
28086;SDS011;15392;48.912;8.380;2022-10-12T14:39:51;2.25;;;2.05;;
28086;SDS011;15392;48.912;8.380;2022-10-12T14:42:31;2.55;;;2.20;;
28086;SDS011;15392;48.912;8.380;2022-10-12T14:45:00;2.45;;;2.25;;
28086;SDS011;15392;48.912;8.380;2022-10-12T14:50:05;1.83;;;1.73;;
28086;SDS011;15392;48.912;8.380;2022-10-12T14:55:18;2.40;;;2.20;;
28086;SDS011;15392;48.912;8.380;2022-10-12T14:57:49;2.53;;;1.85;;
28086;SDS011;15392;48.912;8.380;2022-10-12T15:00:23;2.25;;;1.80;;
28086;SDS011;15392;48.912;8.380;2022-10-12T15:02:55;2.47;;;1.80;;
28086;SDS011;15392;48.912;8.380;2022-10-12T15:05:22;1.90;;;1.80;;
28086;SDS011;15392;48.912;8.380;2022-10-12T15:07:49;1.63;;;1.52;;
28086;SDS011;15392;48.912;8.380;2022-10-12T15:10:16;1.92;;;1.83;;
28086;SDS011;15392;48.912;8.380;2022-10-12T15:12:44;1.95;;;1.70;;
28086;SDS011;15392;48.912;8.380;2022-10-12T15:18:02;1.88;;;1.67;;
28086;SDS011;15392;48.912;8.380;2022-10-12T15:20:29;2.25;;;2.15;;
28086;SDS011;15392;48.912;8.380;2022-10-12T15:22:57;2.17;;;1.98;;
28086;SDS011;15392;48.912;8.380;2022-10-12T15:25:31;2.35;;;1.55;;
28086;SDS011;15392;48.912;8.380;2022-10-12T15:28:09;1.98;;;1.88;;
28086;SDS011;15392;48.912;8.380;2022-10-12T15:30:35;4.25;;;1.75;;
28086;SDS011;15392;48.912;8.380;2022-10-12T15:33:01;1.65;;;1.55;;
28086;SDS011;15392;48.912;8.380;2022-10-12T15:35:28;1.90;;;1.80;;
28086;SDS011;15392;48.912;8.380;2022-10-12T15:37:57;1.73;;;1.63;;
28086;SDS011;15392;48.912;8.380;2022-10-12T15:40:23;1.90;;;1.80;;
28086;SDS011;15392;48.912;8.380;2022-10-12T15:42:53;1.73;;;1.63;;
28086;SDS011;15392;48.912;8.380;2022-10-12T15:45:24;2.00;;;1.80;;
28086;SDS011;15392;48.912;8.380;2022-10-12T15:47:59;2.00;;;1.90;;
28086;SDS011;15392;48.912;8.380;2022-10-12T15:50:27;2.25;;;2.08;;
28086;SDS011;15392;48.912;8.380;2022-10-12T15:53:00;1.80;;;1.70;;
28086;SDS011;15392;48.912;8.380;2022-10-12T15:55:27;1.80;;;1.70;;
28086;SDS011;15392;48.912;8.380;2022-10-12T15:57:54;1.70;;;1.60;;
28086;SDS011;15392;48.912;8.380;2022-10-12T16:00:22;2.40;;;1.58;;
28086;SDS011;15392;48.912;8.380;2022-10-12T16:02:50;1.73;;;1.63;;
28086;SDS011;15392;48.912;8.380;2022-10-12T16:05:19;1.60;;;1.50;;
28086;SDS011;15392;48.912;8.380;2022-10-12T16:07:48;1.85;;;1.75;;
28086;SDS011;15392;48.912;8.380;2022-10-12T16:10:15;1.70;;;1.60;;
28086;SDS011;15392;48.912;8.380;2022-10-12T16:12:44;1.83;;;1.48;;
28086;SDS011;15392;48.912;8.380;2022-10-12T16:15:17;1.93;;;1.70;;
28086;SDS011;15392;48.912;8.380;2022-10-12T16:17:55;1.65;;;1.52;;
28086;SDS011;15392;48.912;8.380;2022-10-12T16:20:22;1.98;;;1.75;;
28086;SDS011;15392;48.912;8.380;2022-10-12T16:22:48;3.80;;;1.42;;
28086;SDS011;15392;48.912;8.380;2022-10-12T16:25:14;1.67;;;1.30;;
28086;SDS011;15392;48.912;8.380;2022-10-12T16:27:44;1.48;;;1.38;;
28086;SDS011;15392;48.912;8.380;2022-10-12T16:30:10;1.60;;;1.50;;
28086;SDS011;15392;48.912;8.380;2022-10-12T16:32:37;1.73;;;1.63;;
28086;SDS011;15392;48.912;8.380;2022-10-12T16:35:03;2.22;;;1.30;;
28086;SDS011;15392;48.912;8.380;2022-10-12T16:37:29;1.52;;;1.48;;
28086;SDS011;15392;48.912;8.380;2022-10-12T16:39:55;2.95;;;1.50;;
28086;SDS011;15392;48.912;8.380;2022-10-12T16:42:21;1.77;;;1.67;;
28086;SDS011;15392;48.912;8.380;2022-10-12T16:44:47;1.50;;;1.40;;
28086;SDS011;15392;48.912;8.380;2022-10-12T16:47:13;2.17;;;1.63;;
28086;SDS011;15392;48.912;8.380;2022-10-12T16:49:39;2.45;;;1.35;;
28086;SDS011;15392;48.912;8.380;2022-10-12T16:52:06;1.33;;;1.23;;
28086;SDS011;15392;48.912;8.380;2022-10-12T16:54:33;1.42;;;1.38;;
28086;SDS011;15392;48.912;8.380;2022-10-12T16:56:59;1.75;;;1.65;;
28086;SDS011;15392;48.912;8.380;2022-10-12T16:59:25;2.22;;;1.70;;
28086;SDS011;15392;48.912;8.380;2022-10-12T17:01:51;1.63;;;1.50;;
28086;SDS011;15392;48.912;8.380;2022-10-12T17:04:17;1.90;;;1.80;;
28086;SDS011;15392;48.912;8.380;2022-10-12T17:06:45;2.10;;;1.63;;
28086;SDS011;15392;48.912;8.380;2022-10-12T17:09:12;1.48;;;1.38;;
28086;SDS011;15392;48.912;8.380;2022-10-12T17:11:38;1.70;;;1.55;;
28086;SDS011;15392;48.912;8.380;2022-10-12T17:14:06;1.70;;;1.60;;
28086;SDS011;15392;48.912;8.380;2022-10-12T17:19:17;1.42;;;1.33;;
28086;SDS011;15392;48.912;8.380;2022-10-12T17:21:51;1.70;;;1.52;;
28086;SDS011;15392;48.912;8.380;2022-10-12T17:24:18;1.55;;;1.45;;
28086;SDS011;15392;48.912;8.380;2022-10-12T17:26:48;3.10;;;1.35;;
28086;SDS011;15392;48.912;8.380;2022-10-12T17:29:14;1.67;;;1.58;;
28086;SDS011;15392;48.912;8.380;2022-10-12T17:31:42;1.77;;;1.65;;
28086;SDS011;15392;48.912;8.380;2022-10-12T17:34:19;2.08;;;1.90;;